Green Creek, New Jersey
Current Conditions -  °F | °C
As of 4:15 AM on Friday 19 Dec 2014 (Local Time) from KWWD Reporting Station
Overcast Overcast  
Wind Chill: 30°   Ceiling: 12000
Heat Index: 37°   Visibility: 10mi
Dew Point: 25°   Wind: 10mph
Humidity: 60%   Direction: 300°WNW
Pressure: 30.04"   Gusts: 16mph
Location:  39.05°N, 74.9°W
Report Text: KWWD 190915Z AUTO 30009G14KT 10SM OVC120 03/M04 A3004 RMK AO1
Loading
Personal Weather Stations






























Interactive Weather Map New forecast layout! Learn more

10-Day Weather Forecast

Advertisements
Track Severe Weather on mobile